sensor_id;sensor_type;location;lat;lon;timestamp;P1;durP1;ratioP1;P2;durP2;ratioP2
21166;SDS011;10741;52.272;9.580;2023-03-01T00:01:52;6.30;;;4.10;;
21166;SDS011;10741;52.272;9.580;2023-03-01T00:04:18;6.23;;;3.87;;
21166;SDS011;10741;52.272;9.580;2023-03-01T00:06:44;7.03;;;3.60;;
21166;SDS011;10741;52.272;9.580;2023-03-01T00:09:13;5.53;;;3.67;;
21166;SDS011;10741;52.272;9.580;2023-03-01T00:11:40;4.90;;;3.63;;
21166;SDS011;10741;52.272;9.580;2023-03-01T00:14:06;6.57;;;3.13;;
21166;SDS011;10741;52.272;9.580;2023-03-01T00:16:39;5.67;;;3.33;;
21166;SDS011;10741;52.272;9.580;2023-03-01T00:19:07;5.53;;;3.17;;
21166;SDS011;10741;52.272;9.580;2023-03-01T00:21:37;5.37;;;3.23;;
21166;SDS011;10741;52.272;9.580;2023-03-01T00:24:03;3.83;;;3.00;;
21166;SDS011;10741;52.272;9.580;2023-03-01T00:26:29;4.83;;;3.40;;
21166;SDS011;10741;52.272;9.580;2023-03-01T00:28:56;7.03;;;3.30;;
21166;SDS011;10741;52.272;9.580;2023-03-01T00:31:25;8.87;;;4.00;;
21166;SDS011;10741;52.272;9.580;2023-03-01T00:33:55;5.47;;;3.80;;
21166;SDS011;10741;52.272;9.580;2023-03-01T00:36:22;5.77;;;3.67;;
21166;SDS011;10741;52.272;9.580;2023-03-01T00:38:49;5.80;;;3.93;;
21166;SDS011;10741;52.272;9.580;2023-03-01T00:41:16;5.23;;;3.43;;
21166;SDS011;10741;52.272;9.580;2023-03-01T00:43:43;6.50;;;3.57;;
21166;SDS011;10741;52.272;9.580;2023-03-01T00:46:11;5.53;;;3.10;;
21166;SDS011;10741;52.272;9.580;2023-03-01T00:48:38;4.93;;;3.20;;
21166;SDS011;10741;52.272;9.580;2023-03-01T00:51:15;4.23;;;2.90;;
21166;SDS011;10741;52.272;9.580;2023-03-01T00:53:41;5.43;;;2.80;;
21166;SDS011;10741;52.272;9.580;2023-03-01T00:56:07;5.70;;;3.00;;
21166;SDS011;10741;52.272;9.580;2023-03-01T00:58:35;4.90;;;3.00;;
21166;SDS011;10741;52.272;9.580;2023-03-01T01:01:06;5.20;;;3.20;;
21166;SDS011;10741;52.272;9.580;2023-03-01T01:03:44;6.20;;;3.43;;
21166;SDS011;10741;52.272;9.580;2023-03-01T01:06:15;5.37;;;3.30;;
21166;SDS011;10741;52.272;9.580;2023-03-01T01:08:42;6.53;;;3.73;;
21166;SDS011;10741;52.272;9.580;2023-03-01T01:11:11;6.27;;;3.10;;
21166;SDS011;10741;52.272;9.580;2023-03-01T01:13:38;7.17;;;3.83;;
21166;SDS011;10741;52.272;9.580;2023-03-01T01:16:05;6.53;;;3.47;;
21166;SDS011;10741;52.272;9.580;2023-03-01T01:18:32;5.53;;;3.60;;
21166;SDS011;10741;52.272;9.580;2023-03-01T01:21:02;4.20;;;2.73;;
21166;SDS011;10741;52.272;9.580;2023-03-01T01:23:29;5.37;;;2.90;;
21166;SDS011;10741;52.272;9.580;2023-03-01T01:25:55;4.53;;;3.07;;
21166;SDS011;10741;52.272;9.580;2023-03-01T01:28:21;6.57;;;3.10;;
21166;SDS011;10741;52.272;9.580;2023-03-01T01:30:46;5.07;;;3.00;;
21166;SDS011;10741;52.272;9.580;2023-03-01T01:33:12;6.13;;;2.93;;
21166;SDS011;10741;52.272;9.580;2023-03-01T01:35:38;4.53;;;2.77;;
21166;SDS011;10741;52.272;9.580;2023-03-01T01:38:03;4.63;;;3.10;;
21166;SDS011;10741;52.272;9.580;2023-03-01T01:40:29;3.93;;;2.50;;
21166;SDS011;10741;52.272;9.580;2023-03-01T01:42:55;4.50;;;2.30;;
21166;SDS011;10741;52.272;9.580;2023-03-01T01:48:03;5.00;;;3.00;;
21166;SDS011;10741;52.272;9.580;2023-03-01T01:50:35;3.83;;;2.60;;
21166;SDS011;10741;52.272;9.580;2023-03-01T01:53:06;3.90;;;2.83;;
21166;SDS011;10741;52.272;9.580;2023-03-01T01:55:39;3.70;;;2.63;;
21166;SDS011;10741;52.272;9.580;2023-03-01T01:58:09;4.93;;;3.13;;
21166;SDS011;10741;52.272;9.580;2023-03-01T02:00:37;4.57;;;2.73;;
21166;SDS011;10741;52.272;9.580;2023-03-01T02:03:08;4.80;;;3.30;;
21166;SDS011;10741;52.272;9.580;2023-03-01T02:05:38;4.47;;;2.90;;
21166;SDS011;10741;52.272;9.580;2023-03-01T02:08:16;4.37;;;2.73;;
21166;SDS011;10741;52.272;9.580;2023-03-01T02:10:45;3.50;;;2.63;;
21166;SDS011;10741;52.272;9.580;2023-03-01T02:13:11;4.73;;;2.77;;
21166;SDS011;10741;52.272;9.580;2023-03-01T02:15:38;3.73;;;2.70;;
21166;SDS011;10741;52.272;9.580;2023-03-01T02:18:05;5.87;;;3.07;;
21166;SDS011;10741;52.272;9.580;2023-03-01T02:20:44;5.37;;;2.60;;
21166;SDS011;10741;52.272;9.580;2023-03-01T02:23:14;5.60;;;2.90;;
21166;SDS011;10741;52.272;9.580;2023-03-01T02:28:37;5.27;;;3.10;;
21166;SDS011;10741;52.272;9.580;2023-03-01T02:31:07;3.50;;;2.70;;
21166;SDS011;10741;52.272;9.580;2023-03-01T02:33:53;4.53;;;2.90;;
21166;SDS011;10741;52.272;9.580;2023-03-01T02:36:20;5.50;;;3.30;;
21166;SDS011;10741;52.272;9.580;2023-03-01T02:38:50;4.90;;;2.80;;
21166;SDS011;10741;52.272;9.580;2023-03-01T02:41:19;4.80;;;3.37;;
21166;SDS011;10741;52.272;9.580;2023-03-01T02:43:46;4.50;;;3.00;;
21166;SDS011;10741;52.272;9.580;2023-03-01T02:46:14;7.57;;;3.37;;
21166;SDS011;10741;52.272;9.580;2023-03-01T02:48:43;4.33;;;2.97;;
21166;SDS011;10741;52.272;9.580;2023-03-01T02:51:16;5.03;;;2.83;;
21166;SDS011;10741;52.272;9.580;2023-03-01T02:54:00;5.17;;;3.00;;
21166;SDS011;10741;52.272;9.580;2023-03-01T02:56:37;5.57;;;2.93;;
21166;SDS011;10741;52.272;9.580;2023-03-01T02:59:03;4.77;;;2.87;;
21166;SDS011;10741;52.272;9.580;2023-03-01T03:01:29;5.37;;;2.93;;
21166;SDS011;10741;52.272;9.580;2023-03-01T03:04:06;5.33;;;2.93;;
21166;SDS011;10741;52.272;9.580;2023-03-01T03:06:33;4.73;;;3.00;;
21166;SDS011;10741;52.272;9.580;2023-03-01T03:08:59;5.23;;;3.00;;
21166;SDS011;10741;52.272;9.580;2023-03-01T03:11:25;5.37;;;3.13;;
21166;SDS011;10741;52.272;9.580;2023-03-01T03:13:51;6.57;;;3.00;;
21166;SDS011;10741;52.272;9.580;2023-03-01T03:16:17;6.77;;;3.03;;
21166;SDS011;10741;52.272;9.580;2023-03-01T03:18:43;4.53;;;3.20;;
21166;SDS011;10741;52.272;9.580;2023-03-01T03:21:10;5.00;;;3.03;;
21166;SDS011;10741;52.272;9.580;2023-03-01T03:23:37;4.53;;;3.10;;
21166;SDS011;10741;52.272;9.580;2023-03-01T03:26:03;5.27;;;2.93;;
21166;SDS011;10741;52.272;9.580;2023-03-01T03:28:33;6.03;;;2.70;;
21166;SDS011;10741;52.272;9.580;2023-03-01T03:31:00;3.93;;;3.07;;
21166;SDS011;10741;52.272;9.580;2023-03-01T03:33:31;3.80;;;3.13;;
21166;SDS011;10741;52.272;9.580;2023-03-01T03:35:57;6.30;;;3.40;;
21166;SDS011;10741;52.272;9.580;2023-03-01T03:38:23;4.47;;;2.93;;
21166;SDS011;10741;52.272;9.580;2023-03-01T03:40:59;6.87;;;3.30;;
21166;SDS011;10741;52.272;9.580;2023-03-01T03:43:31;5.40;;;2.87;;
21166;SDS011;10741;52.272;9.580;2023-03-01T03:45:58;4.50;;;2.90;;
21166;SDS011;10741;52.272;9.580;2023-03-01T03:48:24;6.50;;;3.57;;
21166;SDS011;10741;52.272;9.580;2023-03-01T03:50:55;4.07;;;3.10;;
21166;SDS011;10741;52.272;9.580;2023-03-01T03:53:22;3.90;;;2.57;;
21166;SDS011;10741;52.272;9.580;2023-03-01T03:55:50;5.23;;;2.97;;
21166;SDS011;10741;52.272;9.580;2023-03-01T03:58:16;5.20;;;3.17;;
21166;SDS011;10741;52.272;9.580;2023-03-01T04:00:45;4.17;;;2.97;;
21166;SDS011;10741;52.272;9.580;2023-03-01T04:03:13;4.73;;;3.20;;
21166;SDS011;10741;52.272;9.580;2023-03-01T04:05:40;4.77;;;3.20;;
21166;SDS011;10741;52.272;9.580;2023-03-01T04:08:06;5.30;;;2.90;;
21166;SDS011;10741;52.272;9.580;2023-03-01T04:10:40;6.33;;;3.27;;
21166;SDS011;10741;52.272;9.580;2023-03-01T04:13:09;8.33;;;3.23;;
21166;SDS011;10741;52.272;9.580;2023-03-01T04:15:38;5.43;;;3.53;;
21166;SDS011;10741;52.272;9.580;2023-03-01T04:18:05;5.70;;;3.30;;
21166;SDS011;10741;52.272;9.580;2023-03-01T04:20:33;5.53;;;3.37;;
21166;SDS011;10741;52.272;9.580;2023-03-01T04:23:07;6.83;;;3.37;;
21166;SDS011;10741;52.272;9.580;2023-03-01T04:28:24;5.03;;;3.43;;
21166;SDS011;10741;52.272;9.580;2023-03-01T04:30:50;6.77;;;3.47;;
21166;SDS011;10741;52.272;9.580;2023-03-01T04:33:17;7.20;;;3.83;;
21166;SDS011;10741;52.272;9.580;2023-03-01T04:35:43;6.57;;;3.60;;
21166;SDS011;10741;52.272;9.580;2023-03-01T04:38:09;6.13;;;3.73;;
21166;SDS011;10741;52.272;9.580;2023-03-01T04:40:35;5.20;;;3.63;;
21166;SDS011;10741;52.272;9.580;2023-03-01T04:43:02;6.93;;;3.73;;
21166;SDS011;10741;52.272;9.580;2023-03-01T04:45:28;6.23;;;3.73;;
21166;SDS011;10741;52.272;9.580;2023-03-01T04:47:54;7.17;;;4.10;;
21166;SDS011;10741;52.272;9.580;2023-03-01T04:50:23;6.87;;;3.77;;
21166;SDS011;10741;52.272;9.580;2023-03-01T04:52:50;5.93;;;3.37;;
21166;SDS011;10741;52.272;9.580;2023-03-01T04:55:17;7.00;;;3.83;;
21166;SDS011;10741;52.272;9.580;2023-03-01T04:57:43;6.23;;;4.00;;
21166;SDS011;10741;52.272;9.580;2023-03-01T05:00:10;5.80;;;4.10;;
21166;SDS011;10741;52.272;9.580;2023-03-01T05:02:46;10.17;;;4.00;;
21166;SDS011;10741;52.272;9.580;2023-03-01T05:05:18;5.83;;;3.73;;
21166;SDS011;10741;52.272;9.580;2023-03-01T05:07:46;8.93;;;4.23;;
21166;SDS011;10741;52.272;9.580;2023-03-01T05:10:11;8.13;;;4.20;;
21166;SDS011;10741;52.272;9.580;2023-03-01T05:12:37;7.50;;;4.67;;
21166;SDS011;10741;52.272;9.580;2023-03-01T05:15:03;6.90;;;4.70;;
21166;SDS011;10741;52.272;9.580;2023-03-01T05:17:32;7.30;;;4.73;;
21166;SDS011;10741;52.272;9.580;2023-03-01T05:19:59;7.33;;;4.43;;
21166;SDS011;10741;52.272;9.580;2023-03-01T05:22:25;5.90;;;3.77;;
21166;SDS011;10741;52.272;9.580;2023-03-01T05:24:51;7.47;;;4.10;;
21166;SDS011;10741;52.272;9.580;2023-03-01T05:27:19;6.83;;;4.33;;
21166;SDS011;10741;52.272;9.580;2023-03-01T05:29:47;8.27;;;4.87;;
21166;SDS011;10741;52.272;9.580;2023-03-01T05:32:13;9.00;;;5.20;;
21166;SDS011;10741;52.272;9.580;2023-03-01T05:34:40;9.87;;;4.70;;
21166;SDS011;10741;52.272;9.580;2023-03-01T05:37:07;10.47;;;5.73;;
21166;SDS011;10741;52.272;9.580;2023-03-01T05:39:33;10.97;;;5.40;;
21166;SDS011;10741;52.272;9.580;2023-03-01T05:42:00;11.10;;;5.73;;
21166;SDS011;10741;52.272;9.580;2023-03-01T05:44:27;12.13;;;5.43;;
21166;SDS011;10741;52.272;9.580;2023-03-01T05:46:53;8.40;;;5.10;;
21166;SDS011;10741;52.272;9.580;2023-03-01T05:49:20;8.57;;;5.20;;
21166;SDS011;10741;52.272;9.580;2023-03-01T05:51:49;9.03;;;4.93;;
21166;SDS011;10741;52.272;9.580;2023-03-01T05:54:15;9.13;;;5.00;;
21166;SDS011;10741;52.272;9.580;2023-03-01T05:56:42;8.17;;;5.10;;
21166;SDS011;10741;52.272;9.580;2023-03-01T05:59:08;6.73;;;4.70;;
21166;SDS011;10741;52.272;9.580;2023-03-01T06:01:34;8.37;;;4.80;;
21166;SDS011;10741;52.272;9.580;2023-03-01T06:04:01;10.73;;;5.43;;
21166;SDS011;10741;52.272;9.580;2023-03-01T06:06:28;8.03;;;5.07;;
21166;SDS011;10741;52.272;9.580;2023-03-01T06:08:53;7.97;;;5.17;;
21166;SDS011;10741;52.272;9.580;2023-03-01T06:11:20;8.63;;;5.23;;
21166;SDS011;10741;52.272;9.580;2023-03-01T06:13:46;11.43;;;5.50;;
21166;SDS011;10741;52.272;9.580;2023-03-01T06:16:12;10.07;;;5.30;;
21166;SDS011;10741;52.272;9.580;2023-03-01T06:18:39;11.00;;;5.27;;
21166;SDS011;10741;52.272;9.580;2023-03-01T06:21:05;8.50;;;5.50;;
21166;SDS011;10741;52.272;9.580;2023-03-01T06:23:32;11.40;;;5.47;;
21166;SDS011;10741;52.272;9.580;2023-03-01T06:25:58;9.50;;;5.70;;
21166;SDS011;10741;52.272;9.580;2023-03-01T06:28:25;9.33;;;5.37;;
21166;SDS011;10741;52.272;9.580;2023-03-01T06:30:51;11.97;;;6.03;;
21166;SDS011;10741;52.272;9.580;2023-03-01T06:33:17;8.30;;;5.20;;
21166;SDS011;10741;52.272;9.580;2023-03-01T06:35:45;8.37;;;5.37;;
21166;SDS011;10741;52.272;9.580;2023-03-01T06:38:12;12.53;;;5.30;;
21166;SDS011;10741;52.272;9.580;2023-03-01T06:40:39;14.23;;;5.57;;
21166;SDS011;10741;52.272;9.580;2023-03-01T06:43:05;10.63;;;5.70;;
21166;SDS011;10741;52.272;9.580;2023-03-01T06:45:32;10.47;;;5.83;;
21166;SDS011;10741;52.272;9.580;2023-03-01T06:48:05;12.53;;;6.30;;
21166;SDS011;10741;52.272;9.580;2023-03-01T06:50:32;10.90;;;5.70;;
21166;SDS011;10741;52.272;9.580;2023-03-01T06:52:59;15.83;;;6.50;;
21166;SDS011;10741;52.272;9.580;2023-03-01T06:55:25;12.53;;;6.43;;
21166;SDS011;10741;52.272;9.580;2023-03-01T06:57:54;12.77;;;7.20;;
21166;SDS011;10741;52.272;9.580;2023-03-01T07:00:21;13.97;;;6.77;;
21166;SDS011;10741;52.272;9.580;2023-03-01T07:02:47;13.23;;;7.17;;
21166;SDS011;10741;52.272;9.580;2023-03-01T07:05:13;14.90;;;7.80;;
21166;SDS011;10741;52.272;9.580;2023-03-01T07:07:39;14.03;;;7.10;;
21166;SDS011;10741;52.272;9.580;2023-03-01T07:10:05;15.30;;;7.07;;
21166;SDS011;10741;52.272;9.580;2023-03-01T07:12:31;9.83;;;6.47;;
21166;SDS011;10741;52.272;9.580;2023-03-01T07:14:57;12.63;;;6.17;;
21166;SDS011;10741;52.272;9.580;2023-03-01T07:17:23;8.80;;;6.10;;
21166;SDS011;10741;52.272;9.580;2023-03-01T07:19:49;10.27;;;6.30;;
21166;SDS011;10741;52.272;9.580;2023-03-01T07:22:14;11.93;;;6.60;;
21166;SDS011;10741;52.272;9.580;2023-03-01T07:24:41;12.67;;;7.10;;
21166;SDS011;10741;52.272;9.580;2023-03-01T07:27:07;9.83;;;6.67;;
21166;SDS011;10741;52.272;9.580;2023-03-01T07:29:33;9.97;;;6.63;;
21166;SDS011;10741;52.272;9.580;2023-03-01T07:32:01;16.37;;;6.70;;
21166;SDS011;10741;52.272;9.580;2023-03-01T07:34:28;8.47;;;6.13;;
21166;SDS011;10741;52.272;9.580;2023-03-01T07:36:53;13.80;;;6.73;;
21166;SDS011;10741;52.272;9.580;2023-03-01T07:39:19;9.57;;;5.93;;
21166;SDS011;10741;52.272;9.580;2023-03-01T07:41:45;9.67;;;6.07;;
21166;SDS011;10741;52.272;9.580;2023-03-01T07:44:11;8.63;;;5.87;;
21166;SDS011;10741;52.272;9.580;2023-03-01T07:46:36;11.80;;;6.27;;
21166;SDS011;10741;52.272;9.580;2023-03-01T07:49:02;8.30;;;6.20;;
21166;SDS011;10741;52.272;9.580;2023-03-01T07:51:29;9.47;;;5.90;;
21166;SDS011;10741;52.272;9.580;2023-03-01T07:53:55;8.10;;;6.00;;
21166;SDS011;10741;52.272;9.580;2023-03-01T07:56:20;8.83;;;6.97;;
21166;SDS011;10741;52.272;9.580;2023-03-01T07:58:47;10.07;;;7.20;;
21166;SDS011;10741;52.272;9.580;2023-03-01T08:01:14;15.70;;;8.23;;
21166;SDS011;10741;52.272;9.580;2023-03-01T08:03:42;9.07;;;7.00;;
21166;SDS011;10741;52.272;9.580;2023-03-01T08:06:09;11.63;;;7.87;;
21166;SDS011;10741;52.272;9.580;2023-03-01T08:08:36;12.67;;;8.13;;
21166;SDS011;10741;52.272;9.580;2023-03-01T08:11:03;12.27;;;8.23;;
21166;SDS011;10741;52.272;9.580;2023-03-01T08:13:30;13.13;;;8.03;;
21166;SDS011;10741;52.272;9.580;2023-03-01T08:16:03;12.03;;;8.20;;
21166;SDS011;10741;52.272;9.580;2023-03-01T08:18:31;13.37;;;8.97;;
21166;SDS011;10741;52.272;9.580;2023-03-01T08:21:07;15.30;;;8.97;;
21166;SDS011;10741;52.272;9.580;2023-03-01T08:23:35;13.33;;;8.80;;
21166;SDS011;10741;52.272;9.580;2023-03-01T08:26:19;13.53;;;7.70;;
21166;SDS011;10741;52.272;9.580;2023-03-01T08:28:46;10.77;;;8.13;;
21166;SDS011;10741;52.272;9.580;2023-03-01T08:31:18;13.73;;;8.17;;
21166;SDS011;10741;52.272;9.580;2023-03-01T08:33:50;10.53;;;7.50;;
21166;SDS011;10741;52.272;9.580;2023-03-01T08:36:21;10.73;;;7.70;;
21166;SDS011;10741;52.272;9.580;2023-03-01T08:38:47;9.87;;;7.33;;
21166;SDS011;10741;52.272;9.580;2023-03-01T08:41:13;8.30;;;6.70;;
21166;SDS011;10741;52.272;9.580;2023-03-01T08:43:39;11.53;;;7.50;;
21166;SDS011;10741;52.272;9.580;2023-03-01T08:46:06;9.00;;;6.93;;
21166;SDS011;10741;52.272;9.580;2023-03-01T08:48:32;8.40;;;6.80;;
21166;SDS011;10741;52.272;9.580;2023-03-01T08:51:06;9.20;;;7.10;;
21166;SDS011;10741;52.272;9.580;2023-03-01T08:53:33;7.53;;;6.73;;
21166;SDS011;10741;52.272;9.580;2023-03-01T08:56:02;10.57;;;8.63;;
21166;SDS011;10741;52.272;9.580;2023-03-01T08:58:29;7.60;;;6.90;;
21166;SDS011;10741;52.272;9.580;2023-03-01T09:00:54;9.47;;;7.53;;
21166;SDS011;10741;52.272;9.580;2023-03-01T09:03:24;8.27;;;6.13;;
21166;SDS011;10741;52.272;9.580;2023-03-01T09:05:51;7.43;;;6.00;;
21166;SDS011;10741;52.272;9.580;2023-03-01T09:08:17;8.33;;;6.20;;
21166;SDS011;10741;52.272;9.580;2023-03-01T09:10:44;6.70;;;6.10;;
21166;SDS011;10741;52.272;9.580;2023-03-01T09:13:09;7.33;;;6.57;;
21166;SDS011;10741;52.272;9.580;2023-03-01T09:15:38;8.03;;;6.83;;
21166;SDS011;10741;52.272;9.580;2023-03-01T09:18:04;8.83;;;7.90;;
21166;SDS011;10741;52.272;9.580;2023-03-01T09:20:30;7.70;;;6.90;;
21166;SDS011;10741;52.272;9.580;2023-03-01T09:22:57;8.37;;;7.53;;
21166;SDS011;10741;52.272;9.580;2023-03-01T09:25:23;7.87;;;7.17;;
21166;SDS011;10741;52.272;9.580;2023-03-01T09:27:53;8.30;;;7.47;;
21166;SDS011;10741;52.272;9.580;2023-03-01T09:30:19;9.90;;;7.87;;
21166;SDS011;10741;52.272;9.580;2023-03-01T09:32:45;10.83;;;7.70;;
21166;SDS011;10741;52.272;9.580;2023-03-01T09:35:11;9.10;;;6.90;;
21166;SDS011;10741;52.272;9.580;2023-03-01T09:37:37;7.97;;;7.10;;
21166;SDS011;10741;52.272;9.580;2023-03-01T09:40:28;8.13;;;6.43;;
21166;SDS011;10741;52.272;9.580;2023-03-01T09:43:06;7.17;;;6.47;;
21166;SDS011;10741;52.272;9.580;2023-03-01T09:45:41;6.90;;;6.20;;
21166;SDS011;10741;52.272;9.580;2023-03-01T09:48:13;6.60;;;5.90;;
21166;SDS011;10741;52.272;9.580;2023-03-01T09:50:43;6.57;;;5.67;;
21166;SDS011;10741;52.272;9.580;2023-03-01T09:53:18;6.70;;;6.00;;
21166;SDS011;10741;52.272;9.580;2023-03-01T09:56:02;7.50;;;5.70;;
21166;SDS011;10741;52.272;9.580;2023-03-01T09:58:36;8.47;;;5.60;;
21166;SDS011;10741;52.272;9.580;2023-03-01T10:01:23;8.10;;;4.97;;
21166;SDS011;10741;52.272;9.580;2023-03-01T10:04:00;7.80;;;6.47;;
21166;SDS011;10741;52.272;9.580;2023-03-01T10:06:44;8.57;;;5.90;;
21166;SDS011;10741;52.272;9.580;2023-03-01T10:09:40;8.27;;;5.47;;
21166;SDS011;10741;52.272;9.580;2023-03-01T10:12:18;8.30;;;7.07;;
21166;SDS011;10741;52.272;9.580;2023-03-01T10:14:58;9.13;;;6.20;;
21166;SDS011;10741;52.272;9.580;2023-03-01T10:18:00;9.17;;;6.07;;
21166;SDS011;10741;52.272;9.580;2023-03-01T10:20:43;10.27;;;6.60;;
21166;SDS011;10741;52.272;9.580;2023-03-01T10:23:46;7.47;;;5.60;;
21166;SDS011;10741;52.272;9.580;2023-03-01T10:29:06;6.67;;;5.30;;
21166;SDS011;10741;52.272;9.580;2023-03-01T10:31:38;8.27;;;5.77;;
21166;SDS011;10741;52.272;9.580;2023-03-01T10:34:09;7.70;;;5.67;;
21166;SDS011;10741;52.272;9.580;2023-03-01T10:36:37;8.13;;;5.87;;
21166;SDS011;10741;52.272;9.580;2023-03-01T10:39:11;9.87;;;6.10;;
21166;SDS011;10741;52.272;9.580;2023-03-01T10:41:44;7.87;;;5.77;;
21166;SDS011;10741;52.272;9.580;2023-03-01T10:44:37;8.47;;;6.03;;
21166;SDS011;10741;52.272;9.580;2023-03-01T10:47:15;7.63;;;5.53;;
21166;SDS011;10741;52.272;9.580;2023-03-01T10:52:37;6.87;;;5.57;;
21166;SDS011;10741;52.272;9.580;2023-03-01T10:57:38;8.97;;;5.73;;
21166;SDS011;10741;52.272;9.580;2023-03-01T11:00:20;7.07;;;5.40;;
21166;SDS011;10741;52.272;9.580;2023-03-01T11:02:50;6.83;;;5.43;;
21166;SDS011;10741;52.272;9.580;2023-03-01T11:05:37;12.37;;;6.93;;
21166;SDS011;10741;52.272;9.580;2023-03-01T11:08:39;8.33;;;6.27;;
21166;SDS011;10741;52.272;9.580;2023-03-01T11:13:39;8.90;;;6.10;;
21166;SDS011;10741;52.272;9.580;2023-03-01T11:19:00;6.53;;;4.93;;
21166;SDS011;10741;52.272;9.580;2023-03-01T11:24:19;6.90;;;4.97;;
21166;SDS011;10741;52.272;9.580;2023-03-01T11:26:56;7.00;;;5.47;;
21166;SDS011;10741;52.272;9.580;2023-03-01T11:31:58;6.40;;;5.10;;
21166;SDS011;10741;52.272;9.580;2023-03-01T11:34:32;6.90;;;4.90;;
21166;SDS011;10741;52.272;9.580;2023-03-01T11:37:34;7.00;;;4.70;;
21166;SDS011;10741;52.272;9.580;2023-03-01T11:40:10;6.23;;;4.53;;
21166;SDS011;10741;52.272;9.580;2023-03-01T11:48:24;10.23;;;4.97;;
21166;SDS011;10741;52.272;9.580;2023-03-01T11:51:24;6.43;;;4.97;;
21166;SDS011;10741;52.272;9.580;2023-03-01T12:00:11;6.53;;;4.67;;
21166;SDS011;10741;52.272;9.580;2023-03-01T12:02:56;6.90;;;4.60;;
21166;SDS011;10741;52.272;9.580;2023-03-01T12:05:50;6.80;;;4.40;;
21166;SDS011;10741;52.272;9.580;2023-03-01T12:08:36;5.77;;;4.57;;
21166;SDS011;10741;52.272;9.580;2023-03-01T12:25:38;6.43;;;4.40;;
21166;SDS011;10741;52.272;9.580;2023-03-01T12:36:55;6.03;;;4.47;;
21166;SDS011;10741;52.272;9.580;2023-03-01T12:50:51;5.83;;;4.20;;
21166;SDS011;10741;52.272;9.580;2023-03-01T12:53:22;4.87;;;4.37;;
21166;SDS011;10741;52.272;9.580;2023-03-01T12:55:51;4.07;;;3.67;;
21166;SDS011;10741;52.272;9.580;2023-03-01T13:01:05;6.13;;;3.63;;
21166;SDS011;10741;52.272;9.580;2023-03-01T13:04:02;5.57;;;3.57;;
21166;SDS011;10741;52.272;9.580;2023-03-01T13:09:18;4.40;;;4.00;;
21166;SDS011;10741;52.272;9.580;2023-03-01T13:11:49;5.40;;;4.23;;
21166;SDS011;10741;52.272;9.580;2023-03-01T13:16:48;4.90;;;4.13;;
21166;SDS011;10741;52.272;9.580;2023-03-01T13:19:18;5.40;;;3.80;;
21166;SDS011;10741;52.272;9.580;2023-03-01T13:21:46;5.20;;;4.70;;
21166;SDS011;10741;52.272;9.580;2023-03-01T13:29:49;5.90;;;4.47;;
21166;SDS011;10741;52.272;9.580;2023-03-01T13:35:03;4.33;;;3.93;;
21166;SDS011;10741;52.272;9.580;2023-03-01T13:37:44;5.63;;;4.13;;
21166;SDS011;10741;52.272;9.580;2023-03-01T13:42:46;4.77;;;4.10;;
21166;SDS011;10741;52.272;9.580;2023-03-01T13:45:18;5.63;;;4.30;;
21166;SDS011;10741;52.272;9.580;2023-03-01T13:47:59;6.27;;;3.70;;
21166;SDS011;10741;52.272;9.580;2023-03-01T13:50:44;4.53;;;4.13;;
21166;SDS011;10741;52.272;9.580;2023-03-01T13:53:15;4.70;;;4.30;;
21166;SDS011;10741;52.272;9.580;2023-03-01T13:55:45;5.17;;;4.67;;
21166;SDS011;10741;52.272;9.580;2023-03-01T13:58:19;5.00;;;4.50;;
21166;SDS011;10741;52.272;9.580;2023-03-01T14:03:27;4.73;;;3.67;;
21166;SDS011;10741;52.272;9.580;2023-03-01T14:06:04;4.97;;;3.77;;
21166;SDS011;10741;52.272;9.580;2023-03-01T14:08:34;4.63;;;3.77;;
21166;SDS011;10741;52.272;9.580;2023-03-01T14:19:45;6.67;;;3.87;;
21166;SDS011;10741;52.272;9.580;2023-03-01T14:25:00;4.47;;;3.87;;
21166;SDS011;10741;52.272;9.580;2023-03-01T14:27:37;4.33;;;3.83;;
21166;SDS011;10741;52.272;9.580;2023-03-01T14:30:11;4.73;;;3.97;;
21166;SDS011;10741;52.272;9.580;2023-03-01T14:32:59;4.10;;;3.70;;
21166;SDS011;10741;52.272;9.580;2023-03-01T14:35:28;3.50;;;3.20;;
21166;SDS011;10741;52.272;9.580;2023-03-01T14:37:59;5.43;;;4.03;;
21166;SDS011;10741;52.272;9.580;2023-03-01T14:42:53;4.73;;;3.87;;
21166;SDS011;10741;52.272;9.580;2023-03-01T14:45:22;4.93;;;4.17;;
21166;SDS011;10741;52.272;9.580;2023-03-01T14:47:51;5.57;;;4.27;;
21166;SDS011;10741;52.272;9.580;2023-03-01T14:50:23;3.57;;;3.23;;
21166;SDS011;10741;52.272;9.580;2023-03-01T14:52:54;4.40;;;3.47;;
21166;SDS011;10741;52.272;9.580;2023-03-01T14:55:28;4.57;;;3.40;;
21166;SDS011;10741;52.272;9.580;2023-03-01T14:58:03;5.93;;;3.50;;
21166;SDS011;10741;52.272;9.580;2023-03-01T15:00:30;3.97;;;2.90;;
21166;SDS011;10741;52.272;9.580;2023-03-01T15:03:00;3.47;;;2.93;;
21166;SDS011;10741;52.272;9.580;2023-03-01T15:05:38;4.83;;;3.13;;
21166;SDS011;10741;52.272;9.580;2023-03-01T15:08:05;3.90;;;3.10;;
21166;SDS011;10741;52.272;9.580;2023-03-01T15:10:32;3.50;;;2.87;;
21166;SDS011;10741;52.272;9.580;2023-03-01T15:13:10;4.10;;;3.37;;
21166;SDS011;10741;52.272;9.580;2023-03-01T15:15:45;3.30;;;2.97;;
21166;SDS011;10741;52.272;9.580;2023-03-01T15:18:13;3.17;;;2.60;;
21166;SDS011;10741;52.272;9.580;2023-03-01T15:20:53;2.73;;;2.47;;
21166;SDS011;10741;52.272;9.580;2023-03-01T15:23:26;4.47;;;2.40;;
21166;SDS011;10741;52.272;9.580;2023-03-01T15:25:53;3.93;;;2.83;;
21166;SDS011;10741;52.272;9.580;2023-03-01T15:28:24;3.43;;;2.83;;
21166;SDS011;10741;52.272;9.580;2023-03-01T15:30:57;4.17;;;2.53;;
21166;SDS011;10741;52.272;9.580;2023-03-01T15:36:03;3.43;;;2.50;;
21166;SDS011;10741;52.272;9.580;2023-03-01T15:38:53;4.63;;;2.53;;
21166;SDS011;10741;52.272;9.580;2023-03-01T15:41:32;7.23;;;2.63;;
21166;SDS011;10741;52.272;9.580;2023-03-01T15:46:53;4.80;;;3.10;;
21166;SDS011;10741;52.272;9.580;2023-03-01T15:52:13;4.67;;;2.90;;
21166;SDS011;10741;52.272;9.580;2023-03-01T15:54:57;3.47;;;2.57;;
21166;SDS011;10741;52.272;9.580;2023-03-01T15:57:26;3.30;;;2.53;;
21166;SDS011;10741;52.272;9.580;2023-03-01T15:59:51;4.77;;;3.10;;
21166;SDS011;10741;52.272;9.580;2023-03-01T16:02:17;4.87;;;2.70;;
21166;SDS011;10741;52.272;9.580;2023-03-01T16:04:46;4.13;;;2.93;;
21166;SDS011;10741;52.272;9.580;2023-03-01T16:07:13;5.60;;;2.97;;
21166;SDS011;10741;52.272;9.580;2023-03-01T16:09:39;4.63;;;3.03;;
21166;SDS011;10741;52.272;9.580;2023-03-01T16:12:05;6.03;;;3.00;;
21166;SDS011;10741;52.272;9.580;2023-03-01T16:14:37;4.37;;;3.20;;
21166;SDS011;10741;52.272;9.580;2023-03-01T16:17:02;3.93;;;2.60;;
21166;SDS011;10741;52.272;9.580;2023-03-01T16:19:28;3.93;;;2.80;;
21166;SDS011;10741;52.272;9.580;2023-03-01T16:21:54;5.73;;;3.00;;
21166;SDS011;10741;52.272;9.580;2023-03-01T16:24:20;3.93;;;2.50;;
21166;SDS011;10741;52.272;9.580;2023-03-01T16:26:45;4.80;;;3.13;;
21166;SDS011;10741;52.272;9.580;2023-03-01T16:29:11;5.17;;;3.00;;
21166;SDS011;10741;52.272;9.580;2023-03-01T16:31:37;4.77;;;3.07;;
21166;SDS011;10741;52.272;9.580;2023-03-01T16:34:03;4.33;;;3.17;;
21166;SDS011;10741;52.272;9.580;2023-03-01T16:36:28;3.60;;;2.80;;
21166;SDS011;10741;52.272;9.580;2023-03-01T16:38:55;5.60;;;3.00;;
21166;SDS011;10741;52.272;9.580;2023-03-01T16:41:23;4.90;;;3.00;;
21166;SDS011;10741;52.272;9.580;2023-03-01T16:43:49;6.27;;;3.40;;
21166;SDS011;10741;52.272;9.580;2023-03-01T16:46:20;7.40;;;3.90;;
21166;SDS011;10741;52.272;9.580;2023-03-01T16:48:53;3.93;;;3.13;;
21166;SDS011;10741;52.272;9.580;2023-03-01T16:51:20;5.73;;;3.83;;
21166;SDS011;10741;52.272;9.580;2023-03-01T16:53:47;3.60;;;3.10;;
21166;SDS011;10741;52.272;9.580;2023-03-01T16:56:13;4.57;;;2.90;;
21166;SDS011;10741;52.272;9.580;2023-03-01T16:58:40;5.57;;;3.20;;
21166;SDS011;10741;52.272;9.580;2023-03-01T17:01:08;3.57;;;2.53;;